Trindle Spring, Pennsylvania
Current Conditions -  °F | °C
As of 1:56 PM on Friday 24 Oct 2014 (Local Time) from KCXY Reporting Station
Clear Clear  
Wind Chill: 67°   Ceiling: Unl
Heat Index: 67°   Visibility: 10mi
Dew Point: 34°   Wind: 12mph
Humidity: 30%   Direction: 300°WNW
Pressure: 29.89"   Gusts: NA
Location:  40.2485°N, 77.0142°W
Report Text: KCXY 241756Z 30010KT 10SM CLR 19/01 A2989 RMK AO2 SLP122 T01940011 10194 20133 58018
Loading
Personal Weather Stations






























Interactive Weather Map
Tropical Storm Tracking
New forecast layout! Learn more

10-Day Weather Forecast

Advertisements
Track Severe Weather on mobile